JAL332 RJTT-RJOO
Flight info
| Callsign | JAL332 |
|---|---|
| Flight time | 0h 50m |
| Altitude | 32000 |
| Route | LAXAS4 LAXAS Y56 TOHME Y54 KOHWA Y546 AGPUK DCT MIRAI DCT ABENO DCT IKOMA DCT |
| Aircraft | A35K/H-SDE2E3GHIJ3J4J5LM1ORWXY/LB1D1 |
Departure
| Time | 2026-05-08 21:51 |
|---|---|
| Airport | Tokyo Haneda International Airport (RJTT) |
Arrival
| Time | 2026-05-08 22:41 |
|---|---|
| Airport | Osaka Itami International Airport (RJOO) |
| Time | Latitude | Longitude | Altitude | Speed | Heading |
|---|---|---|---|---|---|
| 2026-05-08 21:26 | 35.54976 | 139.76874 | 28 ft | 0 kts | 150° |
| 2026-05-08 21:42 | 35.54985 | 139.76867 | 20 ft | 4 kts | 154° |
| 2026-05-08 21:42 | 35.55006 | 139.76854 | 28 ft | 4 kts | 170° |
| 2026-05-08 21:43 | 35.55028 | 139.76860 | 28 ft | 4 kts | 226° |
| 2026-05-08 21:43 | 35.55044 | 139.76886 | 28 ft | 4 kts | 239° |
| 2026-05-08 21:43 | 35.55049 | 139.76896 | 27 ft | 0 kts | 238° |
| 2026-05-08 21:46 | 35.55044 | 139.76887 | 28 ft | 4 kts | 238° |
| 2026-05-08 21:46 | 35.55022 | 139.76843 | 29 ft | 8 kts | 238° |
| 2026-05-08 21:46 | 35.54985 | 139.76764 | 29 ft | 13 kts | 242° |
| 2026-05-08 21:47 | 35.54956 | 139.76686 | 29 ft | 0 kts | 251° |
| 2026-05-08 21:47 | 35.54956 | 139.76685 | 29 ft | 0 kts | 251° |
| 2026-05-08 21:48 | 35.54956 | 139.76684 | 29 ft | 1 kts | 257° |
| 2026-05-08 21:48 | 35.54959 | 139.76674 | 29 ft | 3 kts | 287° |
| 2026-05-08 21:48 | 35.54993 | 139.76629 | 29 ft | 11 kts | 320° |
| 2026-05-08 21:48 | 35.55031 | 139.76561 | 29 ft | 9 kts | 278° |
| 2026-05-08 21:49 | 35.55004 | 139.76494 | 29 ft | 10 kts | 224° |
| 2026-05-08 21:49 | 35.54938 | 139.76428 | 29 ft | 15 kts | 217° |
| 2026-05-08 21:49 | 35.54851 | 139.76341 | 29 ft | 17 kts | 239° |
| 2026-05-08 21:49 | 35.54861 | 139.76238 | 29 ft | 12 kts | 298° |
| 2026-05-08 21:50 | 35.54914 | 139.76164 | 31 ft | 8 kts | 331° |
| 2026-05-08 21:50 | 35.54953 | 139.76177 | 31 ft | 7 kts | 23° |
| 2026-05-08 21:50 | 35.55006 | 139.76220 | 31 ft | 13 kts | 34° |
| 2026-05-08 21:50 | 35.55324 | 139.76496 | 31 ft | 103 kts | 33° |
| 2026-05-08 21:51 | 35.56151 | 139.77193 | 182 ft | 170 kts | 32° |
| 2026-05-08 21:51 | 35.57035 | 139.78186 | 1149 ft | 188 kts | 52° |
| 2026-05-08 21:51 | 35.57219 | 139.79924 | 1873 ft | 233 kts | 96° |
| 2026-05-08 21:51 | 35.56698 | 139.81894 | 2603 ft | 255 kts | 110° |
| 2026-05-08 21:52 | 35.56091 | 139.84026 | 3456 ft | 273 kts | 106° |
| 2026-05-08 21:52 | 35.55581 | 139.86321 | 4499 ft | 281 kts | 103° |
| 2026-05-08 21:52 | 35.55134 | 139.88702 | 5595 ft | 287 kts | 102° |
| 2026-05-08 21:52 | 35.54658 | 139.91099 | 6768 ft | 292 kts | 109° |
| 2026-05-08 21:53 | 35.53660 | 139.93263 | 7887 ft | 294 kts | 135° |
| 2026-05-08 21:53 | 35.52002 | 139.94688 | 9088 ft | 291 kts | 163° |
| 2026-05-08 21:53 | 35.50070 | 139.95102 | 10226 ft | 283 kts | 190° |
| 2026-05-08 21:53 | 35.48129 | 139.94563 | 11008 ft | 295 kts | 207° |
| 2026-05-08 21:54 | 35.46103 | 139.93698 | 11652 ft | 316 kts | 208° |
| 2026-05-08 21:54 | 35.44174 | 139.92437 | 12718 ft | 313 kts | 222° |
| 2026-05-08 21:54 | 35.42638 | 139.90595 | 13999 ft | 304 kts | 237° |
| 2026-05-08 21:54 | 35.41451 | 139.88450 | 15100 ft | 306 kts | 238° |
| 2026-05-08 21:55 | 35.40114 | 139.86419 | 16123 ft | 312 kts | 232° |
| 2026-05-08 21:55 | 35.38652 | 139.84432 | 17183 ft | 316 kts | 231° |
| 2026-05-08 21:55 | 35.37158 | 139.82435 | 18251 ft | 319 kts | 231° |
| 2026-05-08 21:56 | 35.34122 | 139.78399 | 20117 ft | 324 kts | 231° |
| 2026-05-08 21:56 | 35.32614 | 139.76399 | 21067 ft | 327 kts | 231° |
| 2026-05-08 21:56 | 35.31037 | 139.74418 | 21984 ft | 332 kts | 228° |
| 2026-05-08 21:56 | 35.29311 | 139.72549 | 22854 ft | 339 kts | 227° |
| 2026-05-08 21:57 | 35.27516 | 139.70677 | 23724 ft | 343 kts | 226° |
| 2026-05-08 21:57 | 35.25689 | 139.68781 | 24508 ft | 346 kts | 226° |
| 2026-05-08 21:57 | 35.23838 | 139.66858 | 25291 ft | 350 kts | 226° |
| 2026-05-08 21:57 | 35.21964 | 139.64909 | 26010 ft | 354 kts | 226° |
| 2026-05-08 21:58 | 35.20076 | 139.62945 | 26783 ft | 358 kts | 226° |
| 2026-05-08 21:58 | 35.18197 | 139.60988 | 27586 ft | 361 kts | 226° |
| 2026-05-08 21:58 | 35.16319 | 139.59033 | 28315 ft | 364 kts | 226° |
| 2026-05-08 21:58 | 35.14376 | 139.57012 | 29075 ft | 368 kts | 225° |
| 2026-05-08 21:59 | 35.12418 | 139.54975 | 29826 ft | 371 kts | 225° |
| 2026-05-08 21:59 | 35.10445 | 139.52902 | 30412 ft | 374 kts | 226° |
| 2026-05-08 21:59 | 35.08684 | 139.50598 | 30868 ft | 377 kts | 235° |
| 2026-05-08 21:59 | 35.07344 | 139.47837 | 31349 ft | 381 kts | 245° |
| 2026-05-08 22:00 | 35.06518 | 139.44744 | 31745 ft | 385 kts | 254° |
| 2026-05-08 22:00 | 35.05964 | 139.41533 | 31861 ft | 385 kts | 256° |
| 2026-05-08 22:00 | 35.05451 | 139.38308 | 31866 ft | 386 kts | 256° |
| 2026-05-08 22:01 | 35.04411 | 139.31915 | 31862 ft | 386 kts | 255° |
| 2026-05-08 22:01 | 35.03343 | 139.25477 | 31866 ft | 387 kts | 255° |
| 2026-05-08 22:02 | 35.02278 | 139.19073 | 31866 ft | 387 kts | 256° |
| 2026-05-08 22:02 | 35.01230 | 139.12625 | 31867 ft | 387 kts | 256° |
| 2026-05-08 22:03 | 35.00171 | 139.06179 | 31864 ft | 387 kts | 256° |
| 2026-05-08 22:03 | 34.99115 | 138.99747 | 31873 ft | 388 kts | 257° |
| 2026-05-08 22:04 | 34.98581 | 138.93171 | 31864 ft | 390 kts | 262° |
| 2026-05-08 22:04 | 34.98227 | 138.86582 | 31874 ft | 391 kts | 262° |
| 2026-05-08 22:05 | 34.97894 | 138.79954 | 31875 ft | 390 kts | 262° |
| 2026-05-08 22:05 | 34.97552 | 138.73341 | 31872 ft | 390 kts | 262° |
| 2026-05-08 22:06 | 34.97199 | 138.66731 | 31874 ft | 390 kts | 262° |
| 2026-05-08 22:06 | 34.96843 | 138.60180 | 31868 ft | 388 kts | 262° |
| 2026-05-08 22:07 | 34.96483 | 138.53614 | 31873 ft | 388 kts | 262° |
| 2026-05-08 22:07 | 34.96120 | 138.47043 | 31874 ft | 388 kts | 262° |
| 2026-05-08 22:08 | 34.95753 | 138.40473 | 31876 ft | 387 kts | 262° |
| 2026-05-08 22:08 | 34.95388 | 138.33974 | 31880 ft | 387 kts | 262° |
| 2026-05-08 22:09 | 34.95015 | 138.27415 | 31885 ft | 387 kts | 262° |
| 2026-05-08 22:09 | 34.94647 | 138.20924 | 31876 ft | 387 kts | 262° |
| 2026-05-08 22:10 | 34.94261 | 138.14376 | 31887 ft | 387 kts | 263° |
| 2026-05-08 22:10 | 34.93878 | 138.07828 | 31887 ft | 387 kts | 262° |
| 2026-05-08 22:11 | 34.93494 | 138.01279 | 31884 ft | 387 kts | 262° |
| 2026-05-08 22:11 | 34.93108 | 137.94728 | 31914 ft | 387 kts | 262° |
| 2026-05-08 22:12 | 34.92712 | 137.88225 | 31906 ft | 386 kts | 262° |
| 2026-05-08 22:12 | 34.92313 | 137.81686 | 31918 ft | 387 kts | 262° |
| 2026-05-08 22:13 | 34.91921 | 137.75206 | 31936 ft | 384 kts | 263° |
| 2026-05-08 22:13 | 34.91398 | 137.68749 | 31942 ft | 382 kts | 258° |
| 2026-05-08 22:14 | 34.89958 | 137.62538 | 31950 ft | 380 kts | 251° |
| 2026-05-08 22:14 | 34.88169 | 137.56474 | 31949 ft | 379 kts | 250° |
| 2026-05-08 22:15 | 34.86349 | 137.50488 | 31955 ft | 378 kts | 250° |
| 2026-05-08 22:15 | 34.84527 | 137.44457 | 31961 ft | 378 kts | 250° |
| 2026-05-08 22:16 | 34.83752 | 137.41783 | 31962 ft | 378 kts | 251° |
| 2026-05-08 22:16 | 34.82097 | 137.35924 | 31973 ft | 378 kts | 251° |
| 2026-05-08 22:17 | 34.80385 | 137.29881 | 31979 ft | 377 kts | 251° |
| 2026-05-08 22:17 | 34.78656 | 137.23845 | 31980 ft | 377 kts | 251° |
| 2026-05-08 22:18 | 34.76924 | 137.17833 | 31988 ft | 377 kts | 251° |
| 2026-05-08 22:18 | 34.75196 | 137.11845 | 32005 ft | 376 kts | 251° |
| 2026-05-08 22:19 | 34.73459 | 137.05844 | 31990 ft | 376 kts | 251° |
| 2026-05-08 22:19 | 34.71721 | 136.99849 | 31990 ft | 376 kts | 251° |
| 2026-05-08 22:20 | 34.69989 | 136.93880 | 31624 ft | 383 kts | 251° |
| 2026-05-08 22:20 | 34.69118 | 136.90883 | 30668 ft | 379 kts | 251° |
| 2026-05-08 22:20 | 34.68246 | 136.87900 | 29502 ft | 370 kts | 251° |
| 2026-05-08 22:20 | 34.67380 | 136.84946 | 28560 ft | 371 kts | 251° |
| 2026-05-08 22:21 | 34.66513 | 136.81986 | 27859 ft | 369 kts | 251° |
| 2026-05-08 22:21 | 34.65654 | 136.79060 | 27177 ft | 365 kts | 251° |
| 2026-05-08 22:21 | 34.64810 | 136.76177 | 26460 ft | 366 kts | 251° |
| 2026-05-08 22:21 | 34.63960 | 136.73279 | 25762 ft | 361 kts | 251° |
| 2026-05-08 22:22 | 34.63128 | 136.70438 | 25060 ft | 357 kts | 252° |
| 2026-05-08 22:22 | 34.62300 | 136.67611 | 24357 ft | 353 kts | 252° |
| 2026-05-08 22:22 | 34.61478 | 136.64812 | 23663 ft | 350 kts | 252° |
| 2026-05-08 22:22 | 34.60664 | 136.62040 | 22880 ft | 346 kts | 252° |
| 2026-05-08 22:23 | 34.59858 | 136.59302 | 22163 ft | 341 kts | 252° |
| 2026-05-08 22:23 | 34.59331 | 136.57511 | 21715 ft | 339 kts | 252° |
| 2026-05-08 22:23 | 34.58534 | 136.54802 | 21023 ft | 339 kts | 252° |
| 2026-05-08 22:23 | 34.57749 | 136.52138 | 20333 ft | 339 kts | 252° |
| 2026-05-08 22:24 | 34.56956 | 136.49450 | 19624 ft | 338 kts | 252° |
| 2026-05-08 22:24 | 34.56163 | 136.46767 | 18901 ft | 336 kts | 252° |
| 2026-05-08 22:24 | 34.55372 | 136.44095 | 18149 ft | 336 kts | 252° |
| 2026-05-08 22:24 | 34.54584 | 136.41430 | 17343 ft | 334 kts | 252° |
| 2026-05-08 22:25 | 34.53804 | 136.38800 | 16616 ft | 332 kts | 252° |
| 2026-05-08 22:25 | 34.53021 | 136.36168 | 15858 ft | 330 kts | 252° |
| 2026-05-08 22:25 | 34.52243 | 136.33554 | 15112 ft | 328 kts | 253° |
| 2026-05-08 22:25 | 34.51658 | 136.30880 | 14378 ft | 326 kts | 259° |
| 2026-05-08 22:26 | 34.51230 | 136.28219 | 13607 ft | 325 kts | 261° |
| 2026-05-08 22:26 | 34.50854 | 136.25522 | 12875 ft | 323 kts | 263° |
| 2026-05-08 22:26 | 34.50510 | 136.22836 | 12177 ft | 322 kts | 263° |
| 2026-05-08 22:26 | 34.50175 | 136.20160 | 11424 ft | 321 kts | 264° |
| 2026-05-08 22:27 | 34.49839 | 136.17497 | 10955 ft | 311 kts | 264° |
| 2026-05-08 22:27 | 34.49517 | 136.14996 | 10801 ft | 290 kts | 264° |
| 2026-05-08 22:27 | 34.49215 | 136.12653 | 10672 ft | 271 kts | 265° |
| 2026-05-08 22:27 | 34.48935 | 136.10456 | 10565 ft | 254 kts | 267° |
| 2026-05-08 22:28 | 34.48873 | 136.08396 | 10440 ft | 235 kts | 278° |
| 2026-05-08 22:28 | 34.49134 | 136.06533 | 10333 ft | 228 kts | 286° |
| 2026-05-08 22:28 | 34.49548 | 136.04683 | 10198 ft | 226 kts | 289° |
| 2026-05-08 22:28 | 34.50031 | 136.02867 | 10075 ft | 225 kts | 291° |
| 2026-05-08 22:29 | 34.50550 | 136.01071 | 9952 ft | 226 kts | 291° |
| 2026-05-08 22:29 | 34.51103 | 135.99204 | 9896 ft | 241 kts | 291° |
| 2026-05-08 22:29 | 34.51669 | 135.97293 | 9649 ft | 239 kts | 291° |
| 2026-05-08 22:29 | 34.52228 | 135.95366 | 8970 ft | 245 kts | 292° |
| 2026-05-08 22:30 | 34.52790 | 135.93394 | 8477 ft | 248 kts | 292° |
| 2026-05-08 22:30 | 34.53354 | 135.91403 | 8057 ft | 249 kts | 292° |
| 2026-05-08 22:30 | 34.53910 | 135.89434 | 7647 ft | 250 kts | 292° |
| 2026-05-08 22:30 | 34.54460 | 135.87428 | 7254 ft | 250 kts | 292° |
| 2026-05-08 22:31 | 34.54995 | 135.85442 | 6843 ft | 250 kts | 293° |
| 2026-05-08 22:31 | 34.55539 | 135.83437 | 6438 ft | 249 kts | 294° |
| 2026-05-08 22:31 | 34.56081 | 135.81457 | 5996 ft | 247 kts | 294° |
| 2026-05-08 22:31 | 34.56609 | 135.79531 | 5814 ft | 233 kts | 294° |
| 2026-05-08 22:32 | 34.57102 | 135.77725 | 5673 ft | 220 kts | 294° |
| 2026-05-08 22:32 | 34.57566 | 135.76025 | 5515 ft | 208 kts | 295° |
| 2026-05-08 22:32 | 34.58014 | 135.74390 | 5385 ft | 203 kts | 296° |
| 2026-05-08 22:32 | 34.58469 | 135.72755 | 5202 ft | 202 kts | 296° |
| 2026-05-08 22:33 | 34.58922 | 135.71125 | 4992 ft | 206 kts | 296° |
| 2026-05-08 22:33 | 34.59381 | 135.69468 | 4686 ft | 207 kts | 295° |
| 2026-05-08 22:33 | 34.59826 | 135.67843 | 4538 ft | 195 kts | 295° |
| 2026-05-08 22:33 | 34.60227 | 135.66352 | 4459 ft | 178 kts | 296° |
| 2026-05-08 22:34 | 34.60786 | 135.65063 | 4434 ft | 169 kts | 314° |
| 2026-05-08 22:34 | 34.61553 | 135.64063 | 4376 ft | 167 kts | 320° |
| 2026-05-08 22:34 | 34.62400 | 135.63069 | 4239 ft | 162 kts | 321° |
| 2026-05-08 22:34 | 34.63192 | 135.62140 | 4035 ft | 155 kts | 320° |
| 2026-05-08 22:35 | 34.63950 | 135.61226 | 3818 ft | 151 kts | 320° |
| 2026-05-08 22:35 | 34.64683 | 135.60342 | 3585 ft | 146 kts | 320° |
| 2026-05-08 22:35 | 34.65400 | 135.59481 | 3387 ft | 145 kts | 320° |
| 2026-05-08 22:35 | 34.66108 | 135.58628 | 3193 ft | 145 kts | 319° |
| 2026-05-08 22:36 | 34.66825 | 135.57761 | 2977 ft | 145 kts | 319° |
| 2026-05-08 22:36 | 34.67528 | 135.56912 | 2802 ft | 140 kts | 320° |
| 2026-05-08 22:36 | 34.68206 | 135.56094 | 2577 ft | 134 kts | 319° |
| 2026-05-08 22:36 | 34.68856 | 135.55309 | 2412 ft | 130 kts | 319° |
| 2026-05-08 22:37 | 34.69503 | 135.54528 | 2221 ft | 131 kts | 319° |
| 2026-05-08 22:37 | 34.70138 | 135.53759 | 2056 ft | 126 kts | 319° |
| 2026-05-08 22:37 | 34.70743 | 135.53027 | 1877 ft | 123 kts | 319° |
| 2026-05-08 22:37 | 34.71339 | 135.52308 | 1721 ft | 119 kts | 317° |
| 2026-05-08 22:38 | 34.71922 | 135.51602 | 1539 ft | 118 kts | 318° |
| 2026-05-08 22:38 | 34.72498 | 135.50905 | 1390 ft | 118 kts | 319° |
| 2026-05-08 22:38 | 34.73084 | 135.50195 | 1220 ft | 118 kts | 317° |
| 2026-05-08 22:38 | 34.73673 | 135.49483 | 1057 ft | 119 kts | 317° |
| 2026-05-08 22:39 | 34.74258 | 135.48777 | 903 ft | 119 kts | 319° |
| 2026-05-08 22:39 | 34.74852 | 135.48060 | 720 ft | 121 kts | 316° |
| 2026-05-08 22:39 | 34.75450 | 135.47337 | 598 ft | 124 kts | 316° |
| 2026-05-08 22:39 | 34.76069 | 135.46580 | 406 ft | 126 kts | 315° |
| 2026-05-08 22:40 | 34.76677 | 135.45837 | 233 ft | 123 kts | 316° |
| 2026-05-08 22:40 | 34.77274 | 135.45119 | 87 ft | 122 kts | 316° |
| 2026-05-08 22:40 | 34.77852 | 135.44424 | 45 ft | 109 kts | 301° |
| 2026-05-08 22:40 | 34.78300 | 135.43874 | 48 ft | 75 kts | 317° |
| 2026-05-08 22:41 | 34.78604 | 135.43504 | 47 ft | 51 kts | 311° |
| 2026-05-08 22:41 | 34.78833 | 135.43232 | 50 ft | 43 kts | 314° |
| 2026-05-08 22:41 | 34.79011 | 135.43016 | 52 ft | 28 kts | 313° |
| 2026-05-08 22:41 | 34.79141 | 135.42915 | 54 ft | 20 kts | 354° |
| 2026-05-08 22:42 | 34.79246 | 135.42988 | 60 ft | 18 kts | 48° |
| 2026-05-08 22:42 | 34.79338 | 135.43103 | 54 ft | 20 kts | 45° |
| 2026-05-08 22:42 | 34.79440 | 135.43228 | 58 ft | 22 kts | 43° |
| 2026-05-08 22:42 | 34.79492 | 135.43309 | 57 ft | 11 kts | 68° |
| 2026-05-08 22:43 | 34.79476 | 135.43371 | 61 ft | 7 kts | 143° |
| 2026-05-08 22:43 | 34.79423 | 135.43425 | 56 ft | 13 kts | 136° |
| 2026-05-08 22:43 | 34.79349 | 135.43512 | 55 ft | 16 kts | 141° |
| 2026-05-08 22:43 | 34.79275 | 135.43567 | 57 ft | 10 kts | 181° |
| 2026-05-08 22:44 | 34.79196 | 135.43585 | 55 ft | 13 kts | 150° |
| 2026-05-08 22:44 | 34.79121 | 135.43667 | 53 ft | 17 kts | 135° |
| 2026-05-08 22:44 | 34.79033 | 135.43775 | 54 ft | 20 kts | 135° |
| 2026-05-08 22:44 | 34.78931 | 135.43898 | 49 ft | 21 kts | 136° |
| 2026-05-08 22:45 | 34.78839 | 135.44010 | 49 ft | 16 kts | 135° |
| 2026-05-08 22:45 | 34.78819 | 135.44034 | 50 ft | 0 kts | 135° |
| 2026-05-08 22:45 | 34.78816 | 135.44039 | 49 ft | 3 kts | 134° |
| 2026-05-08 22:46 | 34.78785 | 135.44073 | 47 ft | 5 kts | 137° |
| 2026-05-08 22:46 | 34.78771 | 135.44088 | 52 ft | 6 kts | 139° |
| 2026-05-08 22:46 | 34.78749 | 135.44113 | 50 ft | 0 kts | 139° |
| 2026-05-08 22:46 | 34.78748 | 135.44114 | 48 ft | 1 kts | 139° |
| 2026-05-08 22:47 | 34.78727 | 135.44140 | 49 ft | 7 kts | 130° |
| 2026-05-08 22:47 | 34.78681 | 135.44199 | 48 ft | 13 kts | 135° |
| 2026-05-08 22:47 | 34.78607 | 135.44289 | 47 ft | 17 kts | 136° |
| 2026-05-08 22:47 | 34.78593 | 135.44364 | 50 ft | 6 kts | 57° |
| 2026-05-08 22:48 | 34.78627 | 135.44413 | 50 ft | 9 kts | 47° |
| 2026-05-08 22:48 | 34.78680 | 135.44463 | 51 ft | 9 kts | 11° |
| 2026-05-08 22:48 | 34.78736 | 135.44448 | 51 ft | 9 kts | 333° |
| 2026-05-08 22:48 | 34.78766 | 135.44427 | 49 ft | 1 kts | 329° |
| 2026-05-08 22:49 | 34.78768 | 135.44426 | 49 ft | 0 kts | 329° |